Air Resources Laboratory banner image
Air Resources Laboratory web site National Oceanic and Atmospheric Administration (NOAA)

in metar


KAID 211055Z AUTO 21008KT 10SM CLR M02/M04 A3020 RMK AO2 T10251041=
KBAK 211130Z 19005KT 10SM SKC M03/M06 A3027=
KBMG 211053Z AUTO 21005KT 6SM BR CLR M03/M04 A3025 RMK AO2 SLP249 T10331044=
KEVV 211054Z AUTO 00000KT 7SM CLR M03/M04 A3032 RMK AO2 SLP272 I1000 T10331039=
KEYE 211053Z AUTO 20005KT 7SM CLR M03/M05 A3021 RMK AO2 SLP237 T10281050=
KFWA 211054Z 25009KT 10SM FEW027 SCT033 SCT080 M01/M03 A3015 RMK AO2 SLP219
 T10111033=
KGEZ 211053Z AUTO 20008KT 8SM CLR M02/M05 A3023 RMK AO2 SLP244 T10221050=
KGSH 211053Z AUTO 25012KT 9SM OVC023 M01/M04 A3012 RMK AO2 SLP207 T10111039=
KGUS 211056Z AUTO 24009KT 10SM FEW041 SCT050 M02/M03 A3015 RMK AO2 SLP222
 T10191027 $=
KGYY 211045Z 24004KT 10SM SKC M01/M03 A3016=
KHLB 211055Z AUTO VRB04KT 10SM CLR M03/M03 A3024 RMK A01=
KHNB 211056Z AUTO 19006KT 7SM CLR M04/M04 A3031 RMK AO2 SLP272 T10391044 FZRANO=
KHUF 211053Z 20006KT 7SM CLR M03/M04 A3024 RMK AO2 SLP247 T10281044=
KIND 211054Z 21007KT 7SM FEW040 M03/M05 A3022 RMK AO2 SLP240 T10331050=
KLAF 211054Z AUTO 24004KT 7SM CLR M03/M04 A3020 RMK AO2 SLP232 T10281044=
KMIE 211053Z 23008KT 8SM CLR M02/M04 A3018 RMK AO2 SLP224 T10171044=
KSBN 211054Z 23007KT 9SM BKN021 OVC028 M02/M04 A3013 RMK AO2 SLP211 T10171044=
KVPZ 211056Z AUTO 23007KT 6SM HZ CLR M02/M05 A3016 RMK AO2 SLP220 T10221050=